createdAt,value
2023-04-14T00:09:19.796Z,11.00
2023-04-14T00:11:46.595Z,10.90
2023-04-14T00:16:40.817Z,10.90
2023-04-14T00:19:07.662Z,10.90
2023-04-14T00:26:31.234Z,10.80
2023-04-14T00:28:58.031Z,10.80
2023-04-14T00:38:47.029Z,10.70
2023-04-14T00:41:13.854Z,10.80
2023-04-14T00:43:40.791Z,10.70
2023-04-14T00:46:07.910Z,10.70
2023-04-14T00:58:26.141Z,10.60
2023-04-14T01:00:55.852Z,10.60
2023-04-14T01:03:24.836Z,10.50
2023-04-14T01:08:21.157Z,10.50
2023-04-14T01:10:59.796Z,10.50
2023-04-14T01:13:46.244Z,10.50
2023-04-14T01:16:18.888Z,10.50
2023-04-14T01:19:10.492Z,10.40
2023-04-14T01:21:43.238Z,10.40
2023-04-14T01:24:23.362Z,10.30
2023-04-14T01:27:25.533Z,10.30
2023-04-14T01:30:07.529Z,10.30
2023-04-14T01:32:39.536Z,10.30
2023-04-14T01:35:13.325Z,10.20
2023-04-14T01:38:09.398Z,10.20
2023-04-14T01:40:38.887Z,10.20
2023-04-14T01:43:11.916Z,10.20
2023-04-14T01:45:46.988Z,10.10
2023-04-14T01:48:14.550Z,10.10
2023-04-14T01:50:43.286Z,10.10
2023-04-14T01:53:13.152Z,10.10
2023-04-14T01:55:42.142Z,10.10
2023-04-14T01:58:11.064Z,10.00
2023-04-14T02:00:40.772Z,10.00
2023-04-14T02:03:08.860Z,10.00
2023-04-14T02:06:36.607Z,10.00
2023-04-14T02:09:05.718Z,10.00
2023-04-14T02:11:34.772Z,10.00
2023-04-14T02:14:02.824Z,10.00
2023-04-14T02:16:31.037Z,10.00
2023-04-14T02:18:59.255Z,10.00
2023-04-14T02:21:26.888Z,9.90
2023-04-14T02:23:54.667Z,9.90
2023-04-14T02:26:24.357Z,9.90
2023-04-14T02:29:07.169Z,9.90
2023-04-14T02:31:36.137Z,9.90
2023-04-14T02:34:07.214Z,9.90
2023-04-14T02:36:46.936Z,9.80
2023-04-14T02:39:28.871Z,9.80
2023-04-14T02:42:02.310Z,9.80
2023-04-14T02:44:36.708Z,9.70
2023-04-14T02:47:07.892Z,9.70
2023-04-14T02:49:43.293Z,9.70
2023-04-14T02:52:12.726Z,9.70
2023-04-14T02:54:43.319Z,9.70
2023-04-14T02:57:12.472Z,9.70
2023-04-14T02:59:44.760Z,9.60
2023-04-14T03:02:13.314Z,9.70
2023-04-14T03:04:45.142Z,9.60
2023-04-14T03:07:21.750Z,9.60
2023-04-14T03:09:52.539Z,9.60
2023-04-14T03:12:22.420Z,9.60
2023-04-14T03:19:48.587Z,9.50
2023-04-14T03:22:20.597Z,9.50
2023-04-14T03:24:48.184Z,9.50
2023-04-14T03:27:22.900Z,9.30
2023-04-14T03:29:53.892Z,9.50
2023-04-14T03:32:23.139Z,9.40
2023-04-14T03:34:56.570Z,9.40
2023-04-14T03:37:26.495Z,9.40
2023-04-14T03:42:26.003Z,9.30
2023-04-14T03:44:56.192Z,9.30
2023-04-14T03:47:28.958Z,9.30
2023-04-14T03:50:01.839Z,9.30
2023-04-14T03:52:36.228Z,9.30
2023-04-14T03:55:08.493Z,9.20
2023-04-14T03:57:38.154Z,9.20
2023-04-14T04:00:09.275Z,9.10
2023-04-14T04:02:45.873Z,9.20
2023-04-14T04:10:09.021Z,9.10
2023-04-14T04:12:37.680Z,9.10
2023-04-14T04:15:07.565Z,9.10
2023-04-14T04:17:35.503Z,9.10
2023-04-14T04:20:10.007Z,9.00
2023-04-14T04:22:39.894Z,9.00
2023-04-14T04:25:10.058Z,9.00
2023-04-14T04:30:14.777Z,9.00
2023-04-14T04:32:42.005Z,9.00
2023-04-14T04:37:38.706Z,9.00
2023-04-14T04:40:07.437Z,9.00
2023-04-14T04:52:29.510Z,8.80
2023-04-14T04:59:54.401Z,8.90
2023-04-14T05:09:49.058Z,8.80
2023-04-14T05:14:45.547Z,8.80
2023-04-14T05:19:40.001Z,8.80
2023-04-14T05:27:13.641Z,8.80
2023-04-14T05:32:09.077Z,8.80
2023-04-14T05:44:30.059Z,8.80
2023-04-14T05:49:26.470Z,8.80
2023-04-14T05:51:56.875Z,8.80
2023-04-14T06:16:34.571Z,9.10
2023-04-14T06:33:46.719Z,9.30
2023-04-14T06:43:38.611Z,9.40
2023-04-14T06:48:33.285Z,9.50
2023-04-14T06:58:29.608Z,9.70
2023-04-14T07:01:00.465Z,9.80
2023-04-14T07:03:28.995Z,9.80
2023-04-14T07:06:06.935Z,9.70
2023-04-14T07:08:35.495Z,9.90
2023-04-14T07:11:04.276Z,9.90
2023-04-14T07:20:54.493Z,10.10
2023-04-14T07:23:22.106Z,10.10
2023-04-14T07:25:53.514Z,10.10
2023-04-14T07:28:24.728Z,10.20
2023-04-14T07:30:53.191Z,10.20
2023-04-14T07:33:22.337Z,10.20
2023-04-14T07:36:02.975Z,6.40
2023-04-14T07:38:32.440Z,10.30
2023-04-14T07:43:27.445Z,10.40
2023-04-14T07:50:51.844Z,10.50
2023-04-14T07:53:18.956Z,10.50
2023-04-14T07:55:46.022Z,10.50
2023-04-14T08:00:43.323Z,10.60
2023-04-14T08:03:10.427Z,10.60
2023-04-14T08:05:38.168Z,10.60
2023-04-14T08:17:59.590Z,10.80
2023-04-14T08:20:27.021Z,10.80
2023-04-14T08:22:57.985Z,10.80
2023-04-14T08:32:47.528Z,11.00
2023-04-14T08:35:35.080Z,11.00
2023-04-14T08:40:41.916Z,11.10
2023-04-14T08:43:11.735Z,11.20
2023-04-14T08:50:38.319Z,11.30
2023-04-14T08:53:09.691Z,11.30
2023-04-14T08:55:45.679Z,11.40
2023-04-14T09:00:41.231Z,11.50
2023-04-14T09:03:11.627Z,11.50
2023-04-14T09:05:39.119Z,11.50
2023-04-14T09:08:07.425Z,11.60
2023-04-14T09:13:04.579Z,11.70
2023-04-14T09:23:07.920Z,11.80
2023-04-14T09:30:32.122Z,12.00
2023-04-14T09:32:59.219Z,12.00
2023-04-14T09:35:46.546Z,12.10
2023-04-14T09:38:13.573Z,12.10
2023-04-14T09:40:44.206Z,12.10
2023-04-14T09:43:27.799Z,12.20
2023-04-14T09:51:02.221Z,12.40
2023-04-14T09:53:34.412Z,12.40
2023-04-14T09:56:05.971Z,12.40
2023-04-14T09:58:38.245Z,12.50
2023-04-14T10:01:13.149Z,12.60
2023-04-14T10:03:45.780Z,12.60
2023-04-14T10:06:19.607Z,12.70
2023-04-14T10:08:48.944Z,12.70
2023-04-14T10:11:26.600Z,12.80
2023-04-14T10:13:58.864Z,12.90
2023-04-14T10:16:26.492Z,12.90
2023-04-14T10:18:54.753Z,12.90
2023-04-14T10:21:24.396Z,13.00
2023-04-14T10:23:51.978Z,13.00
2023-04-14T10:26:19.527Z,13.10
2023-04-14T10:28:50.136Z,13.10
2023-04-14T10:31:27.473Z,13.20
2023-04-14T10:33:55.372Z,9.20
2023-04-14T10:36:27.855Z,13.40
2023-04-14T10:39:03.356Z,13.50
2023-04-14T10:41:49.875Z,13.50
2023-04-14T10:44:34.795Z,13.60
2023-04-14T10:47:08.409Z,13.60
2023-04-14T10:49:37.720Z,13.80
2023-04-14T10:52:12.636Z,13.80
2023-04-14T10:55:07.747Z,16.10
2023-04-14T10:57:42.252Z,16.40
2023-04-14T11:00:24.264Z,14.00
2023-04-14T11:02:56.559Z,14.20
2023-04-14T11:05:24.452Z,14.20
2023-04-14T11:07:59.911Z,14.20
2023-04-14T11:10:31.732Z,16.40
2023-04-14T11:13:04.109Z,14.40
2023-04-14T11:15:45.248Z,14.50
2023-04-14T11:18:20.864Z,14.50
2023-04-14T11:20:47.842Z,14.50
2023-04-14T11:23:16.604Z,15.20
2023-04-14T11:25:43.619Z,14.60
2023-04-14T11:28:10.494Z,17.40
2023-04-14T11:30:40.294Z,14.70
2023-04-14T11:33:07.362Z,14.80
2023-04-14T11:35:34.525Z,18.60
2023-04-14T11:38:01.738Z,14.90
2023-04-14T11:40:28.891Z,15.00
2023-04-14T11:42:57.993Z,15.00
2023-04-14T11:45:29.213Z,15.10
2023-04-14T11:48:03.541Z,15.10
2023-04-14T11:50:32.586Z,15.10
2023-04-14T11:53:00.670Z,15.20
2023-04-14T11:55:28.824Z,19.10
2023-04-14T11:57:57.211Z,15.30
2023-04-14T12:00:27.570Z,17.30
2023-04-14T12:02:54.760Z,15.40
2023-04-14T12:05:30.295Z,15.50
2023-04-14T12:08:04.938Z,15.50
2023-04-14T12:10:32.535Z,15.60
2023-04-14T12:13:04.437Z,17.20
2023-04-14T12:15:40.700Z,15.80
2023-04-14T12:18:10.570Z,16.00
2023-04-14T12:20:46.382Z,15.90
2023-04-14T12:23:13.696Z,17.10
2023-04-14T12:25:40.654Z,16.00
2023-04-14T12:28:08.434Z,16.10
2023-04-14T12:30:37.295Z,17.20
2023-04-14T12:33:13.041Z,16.30
2023-04-14T12:35:40.899Z,16.40
2023-04-14T12:38:14.945Z,16.60
2023-04-14T12:40:48.559Z,16.50
2023-04-14T12:43:16.785Z,16.50
2023-04-14T12:45:45.352Z,16.60
2023-04-14T12:48:13.746Z,16.70
2023-04-14T12:50:40.863Z,16.70
2023-04-14T12:53:28.481Z,16.80
2023-04-14T12:56:07.167Z,17.00
2023-04-14T12:58:39.128Z,17.10
2023-04-14T13:01:10.748Z,17.20
2023-04-14T13:03:41.891Z,17.20
2023-04-14T13:06:11.347Z,17.50
2023-04-14T13:08:41.985Z,17.70
2023-04-14T13:14:54.032Z,18.20
2023-04-14T13:17:21.190Z,18.70
2023-04-14T13:19:48.189Z,19.10
2023-04-14T13:22:15.075Z,19.60
2023-04-14T13:24:41.961Z,20.00
2023-04-14T13:27:08.928Z,20.60
2023-04-14T13:29:36.298Z,21.00
2023-04-14T13:32:03.490Z,21.40
2023-04-14T13:34:30.314Z,21.80
2023-04-14T13:36:57.234Z,22.10
2023-04-14T13:39:24.314Z,22.40
2023-04-14T13:41:52.165Z,22.60
2023-04-14T13:44:19.046Z,22.90
2023-04-14T13:46:46.201Z,23.10
2023-04-14T13:49:13.192Z,23.30
2023-04-14T13:51:40.003Z,23.40
2023-04-14T13:54:07.008Z,23.60
2023-04-14T13:56:33.815Z,23.70
2023-04-14T13:59:01.135Z,23.90
2023-04-14T14:01:28.316Z,24.10
2023-04-14T14:03:55.655Z,24.30
2023-04-14T14:06:22.803Z,24.60
2023-04-14T14:09:05.647Z,24.80
2023-04-14T14:11:32.735Z,25.10
2023-04-14T14:13:59.968Z,25.40
2023-04-14T14:18:57.493Z,26.00
2023-04-14T14:21:24.367Z,26.20
2023-04-14T14:23:51.301Z,26.50
2023-04-14T14:26:18.162Z,26.60
2023-04-14T14:28:45.830Z,26.80
2023-04-14T14:31:14.266Z,26.90
2023-04-14T14:33:41.198Z,27.00
2023-04-14T14:36:08.317Z,27.10
2023-04-14T14:38:35.267Z,27.20
2023-04-14T14:41:02.210Z,27.40
2023-04-14T14:43:29.020Z,27.50
2023-04-14T14:45:55.860Z,27.60
2023-04-14T14:48:22.887Z,27.60
2023-04-14T14:50:49.795Z,27.60
2023-04-14T14:53:16.647Z,27.60
2023-04-14T14:55:43.574Z,27.50
2023-04-14T14:58:12.002Z,27.40
2023-04-14T15:00:39.529Z,27.40
2023-04-14T15:03:06.788Z,27.40
2023-04-14T15:05:34.285Z,27.50
2023-04-14T15:08:01.218Z,27.60
2023-04-14T15:10:28.142Z,27.60
2023-04-14T15:12:55.045Z,27.70
2023-04-14T15:15:21.872Z,27.70
2023-04-14T15:17:48.738Z,27.80
2023-04-14T15:20:15.666Z,27.90
2023-04-14T15:22:42.532Z,28.00
2023-04-14T15:25:10.089Z,28.00
2023-04-14T15:27:37.069Z,28.00
2023-04-14T15:30:04.233Z,27.90
2023-04-14T15:32:31.234Z,27.90
2023-04-14T15:34:58.167Z,27.80
2023-04-14T15:37:26.160Z,27.80
2023-04-14T15:39:53.197Z,27.80
2023-04-14T15:42:20.274Z,27.70
2023-04-14T15:44:49.845Z,27.60
2023-04-14T15:47:17.741Z,27.50
2023-04-14T15:49:44.626Z,27.40
2023-04-14T15:52:16.918Z,27.30
2023-04-14T15:54:44.340Z,27.20
2023-04-14T15:57:11.292Z,27.00
2023-04-14T15:59:38.291Z,26.80
2023-04-14T16:02:05.271Z,26.60
2023-04-14T16:04:32.423Z,26.40
2023-04-14T16:06:59.323Z,26.30
2023-04-14T16:09:26.613Z,26.10
2023-04-14T16:11:53.553Z,26.00
2023-04-14T16:14:20.487Z,25.90
2023-04-14T16:16:47.549Z,25.80
2023-04-14T16:19:17.325Z,25.70
2023-04-14T16:21:44.211Z,25.70
2023-04-14T16:24:11.486Z,25.60
2023-04-14T16:26:38.603Z,25.50
2023-04-14T16:29:05.930Z,25.40
2023-04-14T16:31:32.889Z,25.30
2023-04-14T16:34:00.105Z,25.20
2023-04-14T16:36:27.338Z,25.10
2023-04-14T16:38:54.708Z,24.90
2023-04-14T16:41:21.725Z,24.80
2023-04-14T16:43:48.613Z,24.70
2023-04-14T16:46:15.633Z,24.60
2023-04-14T16:48:42.499Z,24.40
2023-04-14T16:51:11.253Z,24.30
2023-04-14T16:53:38.977Z,24.10
2023-04-14T16:56:07.751Z,24.00
2023-04-14T16:58:35.494Z,23.80
2023-04-14T17:01:03.374Z,23.70
2023-04-14T17:03:30.597Z,25.70
2023-04-14T17:05:57.534Z,23.50
2023-04-14T17:08:24.421Z,23.20
2023-04-14T17:10:51.693Z,23.20
2023-04-14T17:13:18.755Z,23.00
2023-04-14T17:15:46.338Z,22.90
2023-04-14T17:18:15.047Z,22.70
2023-04-14T17:20:42.453Z,22.60
2023-04-14T17:25:37.374Z,22.30
2023-04-14T17:28:06.190Z,22.10
2023-04-14T17:30:34.804Z,22.00
2023-04-14T17:33:03.814Z,21.80
2023-04-14T17:35:33.289Z,21.70
2023-04-14T17:38:00.805Z,21.50
2023-04-14T17:40:28.282Z,21.40
2023-04-14T17:42:56.720Z,21.30
2023-04-14T17:47:54.815Z,21.10
2023-04-14T17:50:23.248Z,20.90
2023-04-14T17:52:51.839Z,20.80
2023-04-14T17:57:46.797Z,20.70
2023-04-14T18:00:14.859Z,20.60
2023-04-14T18:05:11.014Z,20.40
2023-04-14T18:07:38.118Z,20.30
2023-04-14T18:10:06.564Z,20.20
2023-04-14T18:15:01.100Z,20.00
2023-04-14T18:17:29.143Z,19.90
2023-04-14T18:19:58.705Z,19.90
2023-04-14T18:22:27.438Z,19.80
2023-04-14T18:32:22.355Z,19.50
2023-04-14T18:37:17.188Z,19.40
2023-04-14T18:52:05.784Z,18.80
2023-04-14T19:04:23.864Z,18.30
2023-04-14T19:09:18.799Z,18.20
2023-04-14T19:11:46.298Z,18.10
2023-04-14T19:14:13.190Z,18.00
2023-04-14T19:16:40.140Z,18.10
2023-04-14T19:19:08.108Z,17.80
2023-04-14T19:21:35.022Z,17.70
2023-04-14T19:24:01.870Z,17.80
2023-04-14T19:26:29.953Z,17.50
2023-04-14T19:28:58.831Z,17.50
2023-04-14T19:31:28.281Z,17.40
2023-04-14T19:33:56.358Z,17.20
2023-04-14T19:36:23.513Z,17.20
2023-04-14T19:38:51.441Z,17.20
2023-04-14T19:43:46.252Z,17.10
2023-04-14T19:46:13.689Z,16.90
2023-04-14T19:48:40.605Z,16.90
2023-04-14T19:51:07.996Z,16.80
2023-04-14T19:53:35.204Z,16.70
2023-04-14T19:58:32.885Z,16.60
2023-04-14T20:01:01.141Z,16.60
2023-04-14T20:05:57.292Z,16.40
2023-04-14T20:08:25.297Z,16.40
2023-04-14T20:10:54.105Z,16.30
2023-04-14T20:13:22.797Z,16.30
2023-04-14T20:15:50.840Z,16.20
2023-04-14T20:20:46.959Z,16.10
2023-04-14T20:23:14.365Z,16.00
2023-04-14T20:28:09.927Z,15.90
2023-04-14T20:33:05.704Z,15.80
2023-04-14T20:35:36.213Z,15.70
2023-04-14T20:38:03.181Z,15.70
2023-04-14T20:42:57.455Z,15.60
2023-04-14T20:45:25.266Z,15.50
2023-04-14T20:52:47.130Z,15.40
2023-04-14T20:55:14.240Z,15.30
2023-04-14T20:57:42.634Z,15.30
2023-04-14T21:00:15.477Z,15.30
2023-04-14T21:02:43.584Z,15.20
2023-04-14T21:05:11.261Z,15.20
2023-04-14T21:07:40.439Z,15.10
2023-04-14T21:10:10.247Z,15.10
2023-04-14T21:12:54.244Z,15.00
2023-04-14T21:18:12.055Z,14.70
2023-04-14T21:23:07.287Z,14.90
2023-04-14T21:28:02.418Z,14.80
2023-04-14T21:32:57.520Z,14.70
2023-04-14T21:45:14.586Z,14.50
2023-04-14T21:50:09.859Z,14.40
2023-04-14T22:02:47.886Z,14.20
2023-04-14T22:05:15.169Z,14.20
2023-04-14T22:10:09.974Z,14.10
2023-04-14T22:12:37.848Z,14.00
2023-04-14T22:17:33.531Z,13.90
2023-04-14T22:22:28.034Z,13.90
2023-04-14T22:24:56.069Z,13.80
2023-04-14T22:27:23.597Z,13.80
2023-04-14T22:39:40.712Z,13.60
2023-04-14T22:47:04.047Z,13.50
2023-04-14T23:06:43.022Z,13.40
2023-04-14T23:11:37.909Z,13.30
2023-04-14T23:14:05.015Z,13.30
2023-04-14T23:18:59.746Z,13.30
2023-04-14T23:38:42.758Z,13.00
2023-04-14T23:41:09.760Z,13.00
2023-04-14T23:43:36.572Z,13.00
2023-04-14T23:58:30.336Z,12.80
